createdAt,value
2018-11-10T00:01:24.250Z,16.50
2018-11-10T00:03:52.799Z,19.03
2018-11-10T00:06:21.299Z,13.23
2018-11-10T00:08:49.804Z,18.40
2018-11-10T00:11:18.277Z,15.90
2018-11-10T00:13:46.779Z,14.20
2018-11-10T00:16:15.298Z,13.47
2018-11-10T00:18:43.812Z,14.57
2018-11-10T00:21:12.304Z,13.10
2018-11-10T00:23:40.787Z,16.23
2018-11-10T00:26:09.304Z,12.83
2018-11-10T00:28:37.803Z,15.10
2018-11-10T00:31:06.279Z,17.17
2018-11-10T00:33:34.759Z,14.80
2018-11-10T00:36:04.165Z,16.33
2018-11-10T00:38:32.699Z,14.17
2018-11-10T00:41:01.182Z,16.60
2018-11-10T00:43:29.662Z,14.67
2018-11-10T00:45:58.163Z,13.57
2018-11-10T00:48:26.634Z,16.40
2018-11-10T00:50:55.135Z,15.07
2018-11-10T00:53:23.695Z,15.37
2018-11-10T00:55:52.176Z,16.50
2018-11-10T00:58:20.836Z,14.20
2018-11-10T01:00:49.350Z,17.87
2018-11-10T01:03:17.834Z,12.90
2018-11-10T01:05:46.373Z,15.33
2018-11-10T01:08:14.860Z,17.97
2018-11-10T01:10:43.415Z,18.70
2018-11-10T01:13:11.936Z,15.70
2018-11-10T01:15:40.392Z,14.33
2018-11-10T01:18:08.888Z,16.80
2018-11-10T01:20:37.367Z,15.07
2018-11-10T01:23:05.853Z,16.53
2018-11-10T01:25:34.368Z,12.40
2018-11-10T01:28:02.996Z,18.13
2018-11-10T01:30:31.373Z,18.73
2018-11-10T01:32:59.852Z,13.90
2018-11-10T01:35:28.364Z,19.90
2018-11-10T01:37:56.830Z,21.20
2018-11-10T01:40:25.299Z,17.17
2018-11-10T01:42:53.812Z,12.67
2018-11-10T01:45:23.038Z,16.40
2018-11-10T01:47:51.572Z,13.07
2018-11-10T01:50:20.067Z,16.27
2018-11-10T01:52:48.591Z,15.50
2018-11-10T01:55:17.079Z,17.07
2018-11-10T01:57:45.596Z,19.60
2018-11-10T02:00:15.432Z,15.87
2018-11-10T02:02:44.662Z,17.50
2018-11-10T02:05:13.188Z,16.90
2018-11-10T02:07:41.685Z,15.13
2018-11-10T02:10:10.829Z,17.17
2018-11-10T02:12:39.421Z,18.13
2018-11-10T02:15:09.886Z,20.27
2018-11-10T02:17:38.755Z,20.63
2018-11-10T02:20:07.756Z,16.00
2018-11-10T02:22:36.238Z,16.63
2018-11-10T02:25:05.318Z,19.00
2018-11-10T02:27:33.811Z,19.97
2018-11-10T02:30:02.313Z,17.40
2018-11-10T02:32:30.782Z,21.80
2018-11-10T02:34:59.311Z,15.90
2018-11-10T02:37:27.845Z,14.63
2018-11-10T02:39:56.320Z,16.97
2018-11-10T02:42:25.774Z,17.63
2018-11-10T02:44:55.487Z,18.33
2018-11-10T02:47:23.968Z,14.67
2018-11-10T02:49:52.463Z,17.47
2018-11-10T02:52:20.946Z,21.67
2018-11-10T02:54:49.411Z,17.87
2018-11-10T02:57:17.916Z,21.83
2018-11-10T02:59:46.460Z,19.27
2018-11-10T03:02:15.016Z,15.90
2018-11-10T03:04:44.055Z,16.17
2018-11-10T03:07:12.531Z,21.83
2018-11-10T03:09:41.016Z,16.37
2018-11-10T03:12:09.512Z,19.27
2018-11-10T03:14:37.986Z,19.87
2018-11-10T03:17:06.468Z,20.10
2018-11-10T03:19:34.967Z,16.73
2018-11-10T03:22:03.480Z,16.77
2018-11-10T03:24:31.972Z,19.40
2018-11-10T03:27:00.477Z,20.37
2018-11-10T03:29:28.976Z,16.23
2018-11-10T03:31:57.479Z,14.97
2018-11-10T03:34:25.980Z,21.67
2018-11-10T03:36:54.469Z,24.07
2018-11-10T03:39:22.975Z,20.17
2018-11-10T03:41:51.467Z,17.77
2018-11-10T03:44:19.970Z,18.40
2018-11-10T03:46:48.502Z,20.10
2018-11-10T03:49:16.980Z,18.97
2018-11-10T03:51:45.455Z,19.40
2018-11-10T03:54:13.964Z,18.07
2018-11-10T03:56:42.460Z,18.97
2018-11-10T03:59:10.963Z,20.93
2018-11-10T04:01:39.465Z,18.90
2018-11-10T04:04:08.700Z,17.30
2018-11-10T04:06:37.215Z,16.93
2018-11-10T04:09:06.616Z,18.03
2018-11-10T04:11:35.332Z,20.07
2018-11-10T04:14:03.961Z,21.03
2018-11-10T04:16:32.437Z,18.83
2018-11-10T04:19:00.918Z,19.20
2018-11-10T04:21:29.407Z,21.07
2018-11-10T04:23:57.878Z,21.77
2018-11-10T04:26:26.396Z,19.73
2018-11-10T04:28:54.859Z,20.70
2018-11-10T04:31:23.368Z,23.00
2018-11-10T04:33:51.867Z,20.93
2018-11-10T04:36:20.369Z,19.93
2018-11-10T04:38:48.856Z,16.67
2018-11-10T04:41:17.332Z,18.63
2018-11-10T04:43:45.890Z,22.23
2018-11-10T04:46:14.600Z,23.17
2018-11-10T04:48:43.109Z,20.10
2018-11-10T04:51:11.612Z,20.00
2018-11-10T04:53:40.160Z,18.97
2018-11-10T04:56:08.644Z,20.77
2018-11-10T04:58:37.156Z,16.83
2018-11-10T05:01:05.660Z,17.07
2018-11-10T05:03:34.164Z,24.67
2018-11-10T05:06:02.656Z,19.30
2018-11-10T05:08:31.148Z,22.73
2018-11-10T05:10:59.659Z,20.07
2018-11-10T05:13:28.343Z,22.07
2018-11-10T05:15:59.038Z,19.03
2018-11-10T05:18:27.558Z,17.40
2018-11-10T05:20:56.039Z,19.10
2018-11-10T05:23:24.540Z,20.30
2018-11-10T05:25:53.076Z,23.50
2018-11-10T05:28:21.594Z,18.50
2018-11-10T05:30:50.083Z,18.77
2018-11-10T05:33:18.620Z,19.93
2018-11-10T05:35:47.140Z,18.70
2018-11-10T05:38:15.713Z,17.27
2018-11-10T05:40:44.190Z,18.17
2018-11-10T05:43:12.672Z,18.77
2018-11-10T05:45:41.214Z,17.27
2018-11-10T05:48:09.723Z,19.73
2018-11-10T05:50:38.209Z,16.37
2018-11-10T05:53:06.732Z,15.43
2018-11-10T05:55:35.276Z,19.50
2018-11-10T05:58:04.422Z,16.62
2018-11-10T06:00:32.900Z,16.83
2018-11-10T06:03:01.449Z,16.30
2018-11-10T06:05:29.913Z,17.23
2018-11-10T06:07:58.419Z,18.70
2018-11-10T06:10:26.997Z,18.07
2018-11-10T06:12:55.440Z,17.60
2018-11-10T06:15:24.086Z,17.73
2018-11-10T06:17:52.572Z,17.77
2018-11-10T06:20:21.104Z,18.90
2018-11-10T06:22:49.615Z,18.13
2018-11-10T06:25:18.164Z,17.03
2018-11-10T06:27:46.666Z,18.80
2018-11-10T06:30:15.157Z,16.13
2018-11-10T06:32:43.752Z,16.63
2018-11-10T06:35:12.183Z,14.93
2018-11-10T06:37:41.418Z,19.63
2018-11-10T06:40:11.140Z,15.40
2018-11-10T06:42:39.896Z,17.10
2018-11-10T06:45:08.392Z,14.27
2018-11-10T06:47:37.481Z,15.90
2018-11-10T06:50:06.676Z,17.00
2018-11-10T06:52:35.176Z,16.77
2018-11-10T06:55:03.778Z,15.03
2018-11-10T06:57:32.279Z,15.53
2018-11-10T07:00:00.751Z,13.67
2018-11-10T07:02:29.251Z,15.93
2018-11-10T07:04:57.778Z,19.77
2018-11-10T07:07:26.263Z,17.37
2018-11-10T07:09:54.809Z,18.17
2018-11-10T07:12:23.332Z,12.83
2018-11-10T07:14:51.815Z,17.87
2018-11-10T07:17:20.350Z,16.23
2018-11-10T07:19:48.779Z,16.27
2018-11-10T07:22:17.280Z,11.93
2018-11-10T07:24:45.823Z,10.73
2018-11-10T07:27:14.268Z,16.80
2018-11-10T07:29:42.873Z,12.27
2018-11-10T07:32:11.421Z,16.83
2018-11-10T07:34:39.922Z,11.77
2018-11-10T07:37:08.423Z,14.90
2018-11-10T07:39:36.950Z,16.00
2018-11-10T07:42:05.424Z,13.07
2018-11-10T07:44:33.924Z,14.40
2018-11-10T07:47:02.416Z,11.13
2018-11-10T07:49:31.062Z,13.87
2018-11-10T07:51:59.476Z,11.30
2018-11-10T07:54:28.021Z,12.97
2018-11-10T07:56:56.490Z,9.47
2018-11-10T07:59:24.976Z,10.07
2018-11-10T08:01:53.470Z,10.97
2018-11-10T08:04:22.173Z,8.77
2018-11-10T08:06:50.692Z,8.17
2018-11-10T08:09:19.207Z,7.97
2018-11-10T08:11:47.724Z,11.57
2018-11-10T08:14:16.208Z,9.23
2018-11-10T08:16:44.706Z,7.37
2018-11-10T08:19:16.377Z,9.40
2018-11-10T08:21:44.926Z,6.83
2018-11-10T08:24:13.620Z,7.97
2018-11-10T08:26:42.295Z,6.93
2018-11-10T08:29:10.877Z,5.27
2018-11-10T08:31:39.504Z,6.77
2018-11-10T08:34:08.023Z,4.73
2018-11-10T08:36:36.629Z,10.03
2018-11-10T08:39:06.701Z,3.97
2018-11-10T08:41:35.551Z,4.70
2018-11-10T08:44:04.492Z,4.25
2018-11-10T08:46:33.015Z,4.50
2018-11-10T08:49:01.774Z,5.07
2018-11-10T08:51:30.269Z,6.43
2018-11-10T08:54:00.118Z,5.00
2018-11-10T08:56:29.236Z,3.93
2018-11-10T08:58:57.863Z,5.27
2018-11-10T09:01:26.316Z,3.77
2018-11-10T09:03:54.832Z,3.60
2018-11-10T09:06:23.416Z,6.97
2018-11-10T09:08:51.960Z,6.03
2018-11-10T09:11:20.657Z,3.90
2018-11-10T09:13:49.222Z,3.43
2018-11-10T09:16:17.769Z,2.93
2018-11-10T09:18:46.311Z,3.60
2018-11-10T09:21:14.913Z,5.47
2018-11-10T09:23:43.545Z,3.67
2018-11-10T09:26:12.051Z,3.57
2018-11-10T09:28:40.695Z,4.43
2018-11-10T09:31:09.244Z,5.10
2018-11-10T09:33:37.762Z,3.77
2018-11-10T09:36:06.235Z,4.37
2018-11-10T09:38:34.759Z,4.73
2018-11-10T09:41:04.126Z,3.00
2018-11-10T09:43:32.652Z,3.43
2018-11-10T09:46:01.159Z,2.87
2018-11-10T09:48:29.682Z,3.50
2018-11-10T09:51:00.098Z,4.37
2018-11-10T09:53:29.179Z,2.93
2018-11-10T09:55:57.721Z,5.40
2018-11-10T09:58:26.308Z,3.07
2018-11-10T10:00:54.837Z,4.37
2018-11-10T10:03:23.339Z,7.37
2018-11-10T10:05:51.844Z,3.07
2018-11-10T10:08:20.386Z,2.93
2018-11-10T10:10:48.885Z,4.83
2018-11-10T10:13:17.420Z,3.43
2018-11-10T10:15:46.837Z,4.00
2018-11-10T10:18:15.360Z,4.30
2018-11-10T10:20:43.903Z,3.10
2018-11-10T10:23:12.619Z,3.57
2018-11-10T10:25:41.099Z,5.40
2018-11-10T10:28:09.649Z,3.63
2018-11-10T10:30:38.085Z,4.50
2018-11-10T10:33:06.602Z,4.03
2018-11-10T10:35:35.240Z,5.40
2018-11-10T10:38:04.846Z,2.83
2018-11-10T10:40:33.365Z,4.03
2018-11-10T10:43:02.608Z,3.20
2018-11-10T10:45:31.102Z,4.53
2018-11-10T10:47:59.663Z,3.67
2018-11-10T10:50:28.185Z,3.23
2018-11-10T10:52:56.732Z,3.00
2018-11-10T10:55:25.236Z,3.17
2018-11-10T10:57:53.812Z,3.23
2018-11-10T11:00:27.868Z,2.60
2018-11-10T11:03:02.063Z,2.60
2018-11-10T11:05:35.994Z,5.20
2018-11-10T11:08:04.618Z,4.87
2018-11-10T11:10:33.105Z,4.33
2018-11-10T11:13:01.644Z,3.23
2018-11-10T11:15:30.266Z,2.97
2018-11-10T11:17:58.700Z,2.60
2018-11-10T11:20:27.220Z,2.77
2018-11-10T11:22:55.763Z,2.30
2018-11-10T11:25:24.269Z,6.53
2018-11-10T11:27:52.784Z,3.63
2018-11-10T11:33:41.408Z,2.70
2018-11-10T11:36:09.846Z,4.00
2018-11-10T11:38:38.349Z,2.37
2018-11-10T11:41:06.933Z,2.73
2018-11-10T11:43:35.350Z,2.43
2018-11-10T11:46:04.754Z,2.53
2018-11-10T11:48:33.262Z,2.23
2018-11-10T11:51:01.756Z,2.93
2018-11-10T11:53:30.266Z,2.33
2018-11-10T11:55:58.819Z,2.30
2018-11-10T11:58:27.484Z,4.67
2018-11-10T12:00:55.822Z,2.30
2018-11-10T12:03:24.328Z,4.00
2018-11-10T12:05:52.831Z,3.53
2018-11-10T12:08:21.336Z,2.50
2018-11-10T12:10:49.887Z,2.50
2018-11-10T12:13:18.364Z,2.73
2018-11-10T12:15:46.871Z,2.90
2018-11-10T12:18:15.375Z,2.50
2018-11-10T12:20:43.860Z,4.10
2018-11-10T12:23:12.377Z,3.40
2018-11-10T12:25:40.912Z,3.43
2018-11-10T12:28:09.433Z,3.10
2018-11-10T12:30:37.944Z,2.83
2018-11-10T12:33:06.506Z,3.27
2018-11-10T12:35:35.023Z,2.53
2018-11-10T12:38:05.386Z,2.90
2018-11-10T12:40:33.911Z,2.23
2018-11-10T12:43:02.437Z,2.63
2018-11-10T12:45:30.946Z,3.03
2018-11-10T12:47:59.451Z,2.55
2018-11-10T12:50:27.967Z,3.62
2018-11-10T12:52:56.491Z,4.43
2018-11-10T12:55:25.005Z,3.73
2018-11-10T12:57:53.581Z,4.93
2018-11-10T13:00:22.063Z,3.37
2018-11-10T13:02:50.561Z,2.77
2018-11-10T13:05:19.068Z,3.93
2018-11-10T13:07:47.946Z,3.10
2018-11-10T13:10:16.451Z,3.00
2018-11-10T13:12:45.227Z,3.77
2018-11-10T13:15:13.731Z,2.80
2018-11-10T13:17:42.297Z,2.83
2018-11-10T13:20:14.883Z,2.87
2018-11-10T13:22:43.398Z,2.50
2018-11-10T13:25:12.890Z,3.70
2018-11-10T13:27:42.788Z,5.63
2018-11-10T13:30:20.302Z,5.33
2018-11-10T14:06:53.571Z,2.73
2018-11-10T14:09:23.269Z,6.20
2018-11-10T14:11:51.836Z,2.50
2018-11-10T14:14:20.422Z,2.77
2018-11-10T14:16:48.935Z,4.20
2018-11-10T14:19:17.461Z,3.15
2018-11-10T14:21:46.093Z,2.77
2018-11-10T14:24:14.849Z,4.70
2018-11-10T14:26:43.487Z,3.30
2018-11-10T14:29:12.151Z,5.17
2018-11-10T14:31:40.725Z,2.77
2018-11-10T14:34:09.385Z,3.73
2018-11-10T14:36:38.697Z,3.00
2018-11-10T14:39:08.191Z,4.67
2018-11-10T14:41:36.813Z,3.63
2018-11-10T14:44:05.604Z,4.50
2018-11-10T14:46:34.763Z,3.87
2018-11-10T14:49:09.438Z,4.50
2018-11-10T14:51:38.220Z,4.60
2018-11-10T14:54:09.096Z,4.57
2018-11-10T14:56:37.688Z,3.70
2018-11-10T14:59:06.682Z,3.47
2018-11-10T15:01:35.618Z,2.70
2018-11-10T15:04:05.454Z,3.03
2018-11-10T15:06:34.269Z,3.60
2018-11-10T15:09:03.296Z,2.67
2018-11-10T15:11:31.993Z,4.23
2018-11-10T15:14:00.612Z,2.63
2018-11-10T15:16:29.351Z,3.07
2018-11-10T15:18:58.623Z,2.70
2018-11-10T15:21:27.634Z,4.13
2018-11-10T15:23:56.942Z,2.30
2018-11-10T15:26:25.875Z,2.70
2018-11-10T15:28:55.021Z,2.67
2018-11-10T15:31:24.973Z,3.83
2018-11-10T15:33:54.281Z,2.77
2018-11-10T15:36:23.852Z,3.87
2018-11-10T15:38:52.868Z,3.20
2018-11-10T15:41:22.613Z,2.27
2018-11-10T15:43:51.450Z,3.30
2018-11-10T15:46:21.872Z,4.57
2018-11-10T15:48:57.181Z,4.73
2018-11-10T15:51:26.345Z,5.00
2018-11-10T15:54:18.862Z,2.30
2018-11-10T15:56:48.429Z,3.37
2018-11-10T15:59:17.605Z,2.67
2018-11-10T16:01:46.672Z,3.37
2018-11-10T16:04:15.559Z,3.80
2018-11-10T16:06:45.258Z,2.90
2018-11-10T16:09:21.962Z,3.07
2018-11-10T16:11:50.643Z,3.17
2018-11-10T16:14:19.146Z,2.67
2018-11-10T16:16:47.653Z,2.77
2018-11-10T16:19:16.217Z,2.87
2018-11-10T16:21:44.757Z,4.10
2018-11-10T16:24:13.318Z,2.57
2018-11-10T16:26:41.859Z,4.00
2018-11-10T16:29:13.109Z,4.30
2018-11-10T16:31:42.289Z,3.10
2018-11-10T16:34:10.828Z,3.60
2018-11-10T16:36:39.580Z,4.30
2018-11-10T16:39:08.568Z,2.63
2018-11-10T16:41:37.128Z,3.70
2018-11-10T16:44:05.789Z,3.20
2018-11-10T16:46:34.283Z,3.53
2018-11-10T16:49:03.540Z,3.60
2018-11-10T16:51:33.553Z,3.50
2018-11-10T16:54:02.057Z,3.73
2018-11-10T16:56:30.888Z,3.77
2018-11-10T16:58:59.370Z,4.40
2018-11-10T17:01:27.893Z,2.70
2018-11-10T17:03:56.402Z,5.72
2018-11-10T17:06:24.937Z,3.80
2018-11-10T17:08:53.546Z,3.93
2018-11-10T17:11:22.033Z,10.40
2018-11-10T17:13:50.602Z,4.97
2018-11-10T17:16:19.273Z,4.37
2018-11-10T17:18:47.965Z,4.23
2018-11-10T17:21:16.548Z,3.67
2018-11-10T17:23:45.059Z,6.13
2018-11-10T17:26:14.393Z,5.37
2018-11-10T17:28:42.945Z,4.47
2018-11-10T17:31:11.452Z,3.73
2018-11-10T17:33:39.967Z,4.60
2018-11-10T17:36:08.775Z,5.40
2018-11-10T17:38:37.363Z,4.57
2018-11-10T17:41:05.939Z,4.77
2018-11-10T17:43:34.472Z,6.60
2018-11-10T17:46:05.557Z,4.10
2018-11-10T17:48:34.162Z,4.63
2018-11-10T17:51:02.693Z,4.60
2018-11-10T17:53:31.376Z,4.27
2018-11-10T17:56:01.275Z,4.00
2018-11-10T17:58:30.041Z,4.77
2018-11-10T18:00:58.604Z,3.93
2018-11-10T18:03:27.105Z,7.43
2018-11-10T18:05:55.596Z,2.97
2018-11-10T18:08:24.130Z,3.50
2018-11-10T18:10:52.637Z,3.23
2018-11-10T18:13:21.229Z,3.27
2018-11-10T18:15:49.825Z,3.60
2018-11-10T18:18:18.351Z,3.40
2018-11-10T18:20:46.889Z,2.93
2018-11-10T18:23:15.392Z,2.73
2018-11-10T18:25:43.926Z,3.53
2018-11-10T18:28:12.410Z,3.57
2018-11-10T18:30:40.916Z,3.77
2018-11-10T18:33:09.407Z,3.77
2018-11-10T18:35:37.930Z,6.23
2018-11-10T18:38:06.471Z,4.87
2018-11-10T18:40:35.011Z,5.47
2018-11-10T18:43:04.281Z,4.93
2018-11-10T18:45:32.776Z,6.40
2018-11-10T18:48:01.283Z,6.23
2018-11-10T18:50:29.796Z,5.77
2018-11-10T18:52:58.357Z,3.83
2018-11-10T18:55:26.893Z,5.93
2018-11-10T18:57:55.522Z,4.57
2018-11-10T19:00:24.008Z,5.30
2018-11-10T19:02:52.520Z,4.47
2018-11-10T19:05:21.521Z,6.00
2018-11-10T19:07:50.065Z,5.77
2018-11-10T19:10:19.188Z,5.37
2018-11-10T19:12:47.790Z,6.40
2018-11-10T19:15:17.879Z,5.27
2018-11-10T19:17:46.388Z,5.77
2018-11-10T19:20:15.452Z,5.83
2018-11-10T19:22:44.048Z,6.03
2018-11-10T19:25:13.477Z,5.00
2018-11-10T19:27:42.012Z,4.80
2018-11-10T19:30:12.985Z,4.40
2018-11-10T19:32:41.739Z,5.60
2018-11-10T19:35:10.211Z,6.30
2018-11-10T19:37:38.721Z,7.03
2018-11-10T19:40:07.608Z,4.07
2018-11-10T19:42:36.113Z,6.30
2018-11-10T19:45:05.265Z,4.80
2018-11-10T19:47:33.753Z,4.50
2018-11-10T19:50:02.446Z,7.40
2018-11-10T19:52:30.918Z,5.23
2018-11-10T19:54:59.513Z,6.03
2018-11-10T19:57:28.001Z,6.40
2018-11-10T19:59:56.514Z,6.70
2018-11-10T20:02:25.087Z,7.43
2018-11-10T20:04:53.601Z,8.20
2018-11-10T20:07:22.171Z,5.37
2018-11-10T20:09:51.109Z,8.67
2018-11-10T20:12:19.665Z,6.10
2018-11-10T20:14:48.211Z,6.20
2018-11-10T20:17:16.737Z,7.03
2018-11-10T20:19:45.298Z,6.27
2018-11-10T20:22:13.773Z,6.43
2018-11-10T20:24:42.321Z,5.87
2018-11-10T20:27:10.860Z,6.53
2018-11-10T20:29:39.372Z,5.60
2018-11-10T20:32:07.869Z,5.57
2018-11-10T20:34:36.396Z,6.50
2018-11-10T20:37:04.906Z,4.50
2018-11-10T20:39:33.416Z,5.83
2018-11-10T20:42:01.954Z,4.93
2018-11-10T20:44:31.040Z,5.57
2018-11-10T20:46:59.554Z,4.17
2018-11-10T20:49:28.076Z,5.03
2018-11-10T20:51:57.698Z,5.03
2018-11-10T20:54:26.197Z,4.10
2018-11-10T20:56:54.724Z,5.87
2018-11-10T20:59:23.231Z,4.07
2018-11-10T21:01:51.833Z,3.40
2018-11-10T21:04:20.363Z,4.80
2018-11-10T21:06:48.884Z,4.33
2018-11-10T21:09:17.373Z,3.73
2018-11-10T21:11:45.870Z,8.73
2018-11-10T21:14:14.446Z,3.77
2018-11-10T21:16:42.980Z,3.77
2018-11-10T21:19:11.484Z,3.57
2018-11-10T21:21:40.021Z,3.70
2018-11-10T21:24:08.525Z,2.90
2018-11-10T21:26:37.048Z,2.87
2018-11-10T21:29:05.684Z,2.97
2018-11-10T21:31:34.100Z,3.73
2018-11-10T21:34:02.677Z,3.90
2018-11-10T21:36:31.095Z,2.50
2018-11-10T21:38:59.600Z,3.20
2018-11-10T21:41:28.114Z,3.10
2018-11-10T21:43:56.647Z,2.80
2018-11-10T21:46:25.167Z,3.57
2018-11-10T21:48:53.633Z,2.20
2018-11-10T21:51:22.141Z,3.60
2018-11-10T21:53:50.637Z,2.53
2018-11-10T21:56:19.120Z,2.10
2018-11-10T21:58:47.648Z,2.20
2018-11-10T22:01:16.217Z,2.63
2018-11-10T22:03:44.757Z,2.60
2018-11-10T22:06:13.382Z,2.10
2018-11-10T22:08:41.929Z,2.03
2018-11-10T22:11:10.558Z,2.63
2018-11-10T22:13:39.096Z,1.80
2018-11-10T22:16:07.621Z,2.40
2018-11-10T22:18:36.144Z,1.80
2018-11-10T22:21:04.946Z,2.00
2018-11-10T22:23:33.448Z,2.87
2018-11-10T22:26:01.967Z,2.13
2018-11-10T22:28:30.463Z,2.53
2018-11-10T22:30:58.975Z,2.23
2018-11-10T22:33:28.033Z,4.00
2018-11-10T22:35:56.536Z,3.87
2018-11-10T22:38:25.053Z,7.05
2018-11-10T22:40:53.599Z,5.27
2018-11-10T22:43:22.101Z,2.80
2018-11-10T22:45:50.640Z,2.90
2018-11-10T22:48:19.123Z,3.93
2018-11-10T22:50:47.666Z,6.53
2018-11-10T22:53:16.184Z,6.17
2018-11-10T22:55:44.671Z,4.60
2018-11-10T22:58:13.174Z,10.17
2018-11-10T23:00:47.210Z,8.47
2018-11-10T23:03:16.264Z,7.67
2018-11-10T23:05:44.770Z,6.20
2018-11-10T23:08:13.300Z,11.17
2018-11-10T23:10:41.820Z,5.23
2018-11-10T23:13:10.358Z,6.83
2018-11-10T23:15:38.872Z,8.53
2018-11-10T23:18:07.380Z,6.33
2018-11-10T23:20:35.943Z,6.03
2018-11-10T23:23:05.183Z,6.43
2018-11-10T23:25:33.631Z,4.53
2018-11-10T23:28:02.143Z,6.40
2018-11-10T23:30:30.643Z,4.20
2018-11-10T23:32:59.181Z,3.87
2018-11-10T23:35:27.680Z,7.50
2018-11-10T23:37:56.188Z,4.53
2018-11-10T23:40:24.734Z,3.77
2018-11-10T23:42:53.238Z,3.63
2018-11-10T23:45:21.773Z,5.40
2018-11-10T23:47:50.266Z,3.43
2018-11-10T23:50:18.822Z,3.03
2018-11-10T23:52:47.398Z,2.97
2018-11-10T23:55:16.466Z,3.20
2018-11-10T23:57:45.007Z,2.97
